sensor_id;sensor_type;location;lat;lon;timestamp;pressure;altitude;pressure_sealevel;temperature;humidity
77450;BME280;66536;53.150;18.172;2023-05-10T00:00:53;101690.34;;;8.91;49.12
77450;BME280;66536;53.150;18.172;2023-05-10T00:03:19;101695.27;;;8.87;49.06
77450;BME280;66536;53.150;18.172;2023-05-10T00:05:45;101692.74;;;8.84;49.12
77450;BME280;66536;53.150;18.172;2023-05-10T00:08:11;101689.64;;;8.81;49.16
77450;BME280;66536;53.150;18.172;2023-05-10T00:10:37;101691.55;;;8.78;49.36
77450;BME280;66536;53.150;18.172;2023-05-10T00:13:10;101688.41;;;8.73;49.20
77450;BME280;66536;53.150;18.172;2023-05-10T00:15:41;101687.80;;;8.68;49.45
77450;BME280;66536;53.150;18.172;2023-05-10T00:18:07;101687.10;;;8.65;49.59
77450;BME280;66536;53.150;18.172;2023-05-10T00:20:52;101682.33;;;8.62;49.78
77450;BME280;66536;53.150;18.172;2023-05-10T00:23:18;101683.36;;;8.58;49.89
77450;BME280;66536;53.150;18.172;2023-05-10T00:25:44;101680.05;;;8.56;49.93
77450;BME280;66536;53.150;18.172;2023-05-10T00:28:10;101678.77;;;8.54;49.94
77450;BME280;66536;53.150;18.172;2023-05-10T00:30:36;101676.80;;;8.50;50.11
77450;BME280;66536;53.150;18.172;2023-05-10T00:33:03;101675.33;;;8.46;50.23
77450;BME280;66536;53.150;18.172;2023-05-10T00:35:29;101671.06;;;8.41;50.27
77450;BME280;66536;53.150;18.172;2023-05-10T00:37:54;101668.14;;;8.36;50.51
77450;BME280;66536;53.150;18.172;2023-05-10T00:40:21;101669.86;;;8.33;50.53
77450;BME280;66536;53.150;18.172;2023-05-10T00:42:50;101668.30;;;8.30;50.63
77450;BME280;66536;53.150;18.172;2023-05-10T00:45:16;101666.95;;;8.28;50.61
77450;BME280;66536;53.150;18.172;2023-05-10T00:47:42;101665.85;;;8.27;50.71
77450;BME280;66536;53.150;18.172;2023-05-10T00:50:09;101665.69;;;8.26;50.70
77450;BME280;66536;53.150;18.172;2023-05-10T00:52:35;101661.49;;;8.23;51.05
77450;BME280;66536;53.150;18.172;2023-05-10T00:55:02;101662.08;;;8.19;51.02
77450;BME280;66536;53.150;18.172;2023-05-10T00:57:29;101657.16;;;8.17;51.16
77450;BME280;66536;53.150;18.172;2023-05-10T00:59:55;101658.55;;;8.15;51.19
77450;BME280;66536;53.150;18.172;2023-05-10T01:02:21;101654.39;;;8.14;51.30
77450;BME280;66536;53.150;18.172;2023-05-10T01:04:48;101651.55;;;8.13;51.30
77450;BME280;66536;53.150;18.172;2023-05-10T01:07:22;101649.02;;;8.11;51.43
77450;BME280;66536;53.150;18.172;2023-05-10T01:09:49;101646.55;;;8.09;51.39
77450;BME280;66536;53.150;18.172;2023-05-10T01:12:40;101647.05;;;8.04;51.55
77450;BME280;66536;53.150;18.172;2023-05-10T01:15:08;101645.83;;;8.00;51.77
77450;BME280;66536;53.150;18.172;2023-05-10T01:17:39;101647.60;;;7.98;51.89
77450;BME280;66536;53.150;18.172;2023-05-10T01:20:07;101650.25;;;7.95;51.75
77450;BME280;66536;53.150;18.172;2023-05-10T01:31:30;101643.03;;;7.86;52.31
77450;BME280;66536;53.150;18.172;2023-05-10T01:34:02;101639.36;;;7.83;52.35
77450;BME280;66536;53.150;18.172;2023-05-10T01:36:38;101640.21;;;7.80;52.52
77450;BME280;66536;53.150;18.172;2023-05-10T01:39:17;101634.52;;;7.77;52.63
77450;BME280;66536;53.150;18.172;2023-05-10T01:41:52;101634.60;;;7.75;52.60
77450;BME280;66536;53.150;18.172;2023-05-10T01:44:34;101631.41;;;7.71;52.70
77450;BME280;66536;53.150;18.172;2023-05-10T01:47:09;101633.95;;;7.69;52.77
77450;BME280;66536;53.150;18.172;2023-05-10T01:49:43;101633.73;;;7.64;52.82
77450;BME280;66536;53.150;18.172;2023-05-10T01:52:14;101631.67;;;7.61;52.94
77450;BME280;66536;53.150;18.172;2023-05-10T01:57:34;101626.02;;;7.56;53.10
77450;BME280;66536;53.150;18.172;2023-05-10T02:00:03;101623.38;;;7.54;53.07
77450;BME280;66536;53.150;18.172;2023-05-10T02:03:00;101620.03;;;7.50;53.09
77450;BME280;66536;53.150;18.172;2023-05-10T02:05:29;101620.36;;;7.47;53.40
77450;BME280;66536;53.150;18.172;2023-05-10T02:07:57;101614.70;;;7.45;53.46
77450;BME280;66536;53.150;18.172;2023-05-10T02:10:25;101616.85;;;7.43;53.35
77450;BME280;66536;53.150;18.172;2023-05-10T02:12:53;101609.08;;;7.38;53.48
77450;BME280;66536;53.150;18.172;2023-05-10T02:15:23;101609.23;;;7.35;53.36
77450;BME280;66536;53.150;18.172;2023-05-10T02:17:52;101609.16;;;7.31;53.66
77450;BME280;66536;53.150;18.172;2023-05-10T02:20:20;101611.45;;;7.27;53.63
77450;BME280;66536;53.150;18.172;2023-05-10T02:22:49;101602.05;;;7.24;53.75
77450;BME280;66536;53.150;18.172;2023-05-10T02:25:18;101601.42;;;7.20;53.96
77450;BME280;66536;53.150;18.172;2023-05-10T02:27:46;101599.29;;;7.17;53.95
77450;BME280;66536;53.150;18.172;2023-05-10T02:30:13;101601.45;;;7.15;53.91
77450;BME280;66536;53.150;18.172;2023-05-10T02:32:41;101602.66;;;7.11;54.07
77450;BME280;66536;53.150;18.172;2023-05-10T02:35:09;101601.64;;;7.08;54.22
77450;BME280;66536;53.150;18.172;2023-05-10T02:37:38;101601.18;;;7.06;54.28
77450;BME280;66536;53.150;18.172;2023-05-10T02:40:06;101599.45;;;7.04;54.20
77450;BME280;66536;53.150;18.172;2023-05-10T02:42:35;101601.70;;;7.02;54.23
77450;BME280;66536;53.150;18.172;2023-05-10T02:45:08;101600.65;;;7.01;54.59
77450;BME280;66536;53.150;18.172;2023-05-10T02:47:35;101601.35;;;6.99;54.42
77450;BME280;66536;53.150;18.172;2023-05-10T02:50:02;101601.21;;;6.97;54.53
77450;BME280;66536;53.150;18.172;2023-05-10T02:52:39;101603.14;;;6.95;54.67
77450;BME280;66536;53.150;18.172;2023-05-10T02:55:09;101605.34;;;6.94;54.62
77450;BME280;66536;53.150;18.172;2023-05-10T02:57:40;101605.30;;;6.93;54.77
77450;BME280;66536;53.150;18.172;2023-05-10T03:00:08;101604.75;;;6.93;54.68
77450;BME280;66536;53.150;18.172;2023-05-10T03:02:34;101601.60;;;6.94;54.74
77450;BME280;66536;53.150;18.172;2023-05-10T03:05:21;101602.41;;;6.94;54.86
77450;BME280;66536;53.150;18.172;2023-05-10T03:07:47;101600.61;;;6.97;54.85
77450;BME280;66536;53.150;18.172;2023-05-10T03:10:14;101598.96;;;6.98;54.74
77450;BME280;66536;53.150;18.172;2023-05-10T03:15:51;101601.87;;;7.01;54.84
77450;BME280;66536;53.150;18.172;2023-05-10T03:18:23;101602.25;;;7.04;54.68
77450;BME280;66536;53.150;18.172;2023-05-10T03:20:57;101600.98;;;7.06;54.57
77450;BME280;66536;53.150;18.172;2023-05-10T03:23:46;101599.42;;;7.09;54.60
77450;BME280;66536;53.150;18.172;2023-05-10T03:26:18;101601.03;;;7.15;54.55
77450;BME280;66536;53.150;18.172;2023-05-10T03:28:47;101599.84;;;7.19;54.34
77450;BME280;66536;53.150;18.172;2023-05-10T03:31:14;101601.70;;;7.22;54.18
77450;BME280;66536;53.150;18.172;2023-05-10T03:33:59;101601.87;;;7.27;54.43
77450;BME280;66536;53.150;18.172;2023-05-10T03:36:44;101603.94;;;7.35;54.19
77450;BME280;66536;53.150;18.172;2023-05-10T03:39:10;101600.52;;;7.41;54.09
77450;BME280;66536;53.150;18.172;2023-05-10T03:41:36;101603.20;;;7.46;54.01
77450;BME280;66536;53.150;18.172;2023-05-10T03:44:02;101603.38;;;7.53;53.90
77450;BME280;66536;53.150;18.172;2023-05-10T03:46:28;101600.90;;;7.58;54.01
77450;BME280;66536;53.150;18.172;2023-05-10T03:48:54;101600.66;;;7.64;53.82
77450;BME280;66536;53.150;18.172;2023-05-10T03:51:21;101600.71;;;7.69;53.74
77450;BME280;66536;53.150;18.172;2023-05-10T03:53:48;101594.90;;;7.75;53.73
77450;BME280;66536;53.150;18.172;2023-05-10T03:56:14;101599.39;;;7.83;53.60
77450;BME280;66536;53.150;18.172;2023-05-10T03:58:40;101595.63;;;7.92;53.32
77450;BME280;66536;53.150;18.172;2023-05-10T04:01:11;101597.73;;;7.99;53.25
77450;BME280;66536;53.150;18.172;2023-05-10T04:03:38;101595.52;;;8.07;52.97
77450;BME280;66536;53.150;18.172;2023-05-10T04:06:17;101599.02;;;8.14;52.91
77450;BME280;66536;53.150;18.172;2023-05-10T04:08:44;101597.52;;;8.22;53.03
77450;BME280;66536;53.150;18.172;2023-05-10T04:11:11;101600.42;;;8.30;52.88
77450;BME280;66536;53.150;18.172;2023-05-10T04:13:38;101596.17;;;8.37;52.77
77450;BME280;66536;53.150;18.172;2023-05-10T04:16:04;101593.71;;;8.45;52.55
77450;BME280;66536;53.150;18.172;2023-05-10T04:18:31;101594.41;;;8.53;52.42
77450;BME280;66536;53.150;18.172;2023-05-10T04:20:58;101595.33;;;8.60;52.05
77450;BME280;66536;53.150;18.172;2023-05-10T04:23:24;101596.45;;;8.67;51.97
77450;BME280;66536;53.150;18.172;2023-05-10T04:25:50;101594.67;;;8.73;51.81
77450;BME280;66536;53.150;18.172;2023-05-10T04:28:16;101590.95;;;8.80;51.68
77450;BME280;66536;53.150;18.172;2023-05-10T04:30:42;101587.26;;;8.87;51.65
77450;BME280;66536;53.150;18.172;2023-05-10T04:33:08;101581.98;;;8.95;51.62
77450;BME280;66536;53.150;18.172;2023-05-10T04:35:35;101582.61;;;9.03;51.28
77450;BME280;66536;53.150;18.172;2023-05-10T04:38:01;101584.51;;;9.12;51.17
77450;BME280;66536;53.150;18.172;2023-05-10T04:40:27;101583.91;;;9.21;51.05
77450;BME280;66536;53.150;18.172;2023-05-10T04:42:53;101583.55;;;9.28;50.76
77450;BME280;66536;53.150;18.172;2023-05-10T04:45:19;101586.52;;;9.35;50.82
77450;BME280;66536;53.150;18.172;2023-05-10T04:47:45;101584.45;;;9.43;50.55
77450;BME280;66536;53.150;18.172;2023-05-10T04:50:10;101583.28;;;9.50;50.51
77450;BME280;66536;53.150;18.172;2023-05-10T04:52:37;101582.11;;;9.57;50.17
77450;BME280;66536;53.150;18.172;2023-05-10T04:55:03;101582.40;;;9.63;50.26
77450;BME280;66536;53.150;18.172;2023-05-10T04:57:29;101582.50;;;9.69;50.06
77450;BME280;66536;53.150;18.172;2023-05-10T04:59:55;101582.11;;;9.76;49.87
77450;BME280;66536;53.150;18.172;2023-05-10T05:02:21;101584.66;;;9.82;49.74
77450;BME280;66536;53.150;18.172;2023-05-10T05:04:47;101584.46;;;9.88;49.66
77450;BME280;66536;53.150;18.172;2023-05-10T05:07:13;101579.84;;;9.92;49.45
77450;BME280;66536;53.150;18.172;2023-05-10T05:09:39;101582.17;;;9.98;49.68
77450;BME280;66536;53.150;18.172;2023-05-10T05:12:05;101577.74;;;10.06;49.46
77450;BME280;66536;53.150;18.172;2023-05-10T05:14:31;101582.28;;;10.15;49.31
77450;BME280;66536;53.150;18.172;2023-05-10T05:17:14;101579.33;;;10.24;49.27
77450;BME280;66536;53.150;18.172;2023-05-10T05:19:40;101579.50;;;10.32;49.21
77450;BME280;66536;53.150;18.172;2023-05-10T05:22:07;101578.59;;;10.40;49.06
77450;BME280;66536;53.150;18.172;2023-05-10T05:24:35;101577.28;;;10.48;48.85
77450;BME280;66536;53.150;18.172;2023-05-10T05:27:04;101576.89;;;10.55;48.63
77450;BME280;66536;53.150;18.172;2023-05-10T05:29:30;101577.17;;;10.64;48.68
77450;BME280;66536;53.150;18.172;2023-05-10T05:31:56;101579.63;;;10.71;48.38
77450;BME280;66536;53.150;18.172;2023-05-10T05:34:22;101581.45;;;10.79;48.34
77450;BME280;66536;53.150;18.172;2023-05-10T05:36:48;101579.36;;;10.86;48.39
77450;BME280;66536;53.150;18.172;2023-05-10T05:39:15;101575.55;;;10.96;48.04
77450;BME280;66536;53.150;18.172;2023-05-10T05:41:42;101568.42;;;11.05;47.92
77450;BME280;66536;53.150;18.172;2023-05-10T05:44:08;101568.55;;;11.16;47.77
77450;BME280;66536;53.150;18.172;2023-05-10T05:46:34;101568.34;;;11.27;47.71
77450;BME280;66536;53.150;18.172;2023-05-10T05:49:00;101574.05;;;11.38;47.33
77450;BME280;66536;53.150;18.172;2023-05-10T05:51:27;101574.42;;;11.48;47.02
77450;BME280;66536;53.150;18.172;2023-05-10T05:53:54;101572.29;;;11.56;46.87
77450;BME280;66536;53.150;18.172;2023-05-10T05:56:20;101572.91;;;11.68;46.99
77450;BME280;66536;53.150;18.172;2023-05-10T05:58:50;101569.46;;;11.80;46.36
77450;BME280;66536;53.150;18.172;2023-05-10T06:01:16;101571.46;;;11.90;45.97
77450;BME280;66536;53.150;18.172;2023-05-10T06:03:44;101574.38;;;12.00;45.42
77450;BME280;66536;53.150;18.172;2023-05-10T06:06:10;101574.34;;;12.10;45.47
77450;BME280;66536;53.150;18.172;2023-05-10T06:08:36;101572.52;;;12.23;45.55
77450;BME280;66536;53.150;18.172;2023-05-10T06:11:03;101575.63;;;12.35;45.11
77450;BME280;66536;53.150;18.172;2023-05-10T06:13:30;101574.30;;;12.46;44.95
77450;BME280;66536;53.150;18.172;2023-05-10T06:15:58;101578.08;;;12.60;44.48
77450;BME280;66536;53.150;18.172;2023-05-10T06:18:25;101575.95;;;12.72;44.16
77450;BME280;66536;53.150;18.172;2023-05-10T06:20:51;101573.08;;;12.86;43.97
77450;BME280;66536;53.150;18.172;2023-05-10T06:23:17;101574.96;;;12.98;43.35
77450;BME280;66536;53.150;18.172;2023-05-10T06:25:44;101576.52;;;13.10;43.30
77450;BME280;66536;53.150;18.172;2023-05-10T06:28:10;101574.06;;;13.25;43.38
77450;BME280;66536;53.150;18.172;2023-05-10T06:30:36;101571.34;;;13.39;42.90
77450;BME280;66536;53.150;18.172;2023-05-10T06:33:03;101573.02;;;13.52;42.45
77450;BME280;66536;53.150;18.172;2023-05-10T06:35:29;101572.09;;;13.65;42.19
77450;BME280;66536;53.150;18.172;2023-05-10T06:37:55;101569.39;;;13.77;41.60
77450;BME280;66536;53.150;18.172;2023-05-10T06:40:21;101567.05;;;13.88;41.23
77450;BME280;66536;53.150;18.172;2023-05-10T06:42:48;101570.77;;;14.00;40.97
77450;BME280;66536;53.150;18.172;2023-05-10T06:45:15;101569.27;;;14.14;40.69
77450;BME280;66536;53.150;18.172;2023-05-10T06:47:41;101568.40;;;14.29;40.42
77450;BME280;66536;53.150;18.172;2023-05-10T06:50:09;101564.49;;;14.44;40.07
77450;BME280;66536;53.150;18.172;2023-05-10T06:52:35;101564.52;;;14.58;39.96
77450;BME280;66536;53.150;18.172;2023-05-10T06:55:02;101561.31;;;14.70;39.25
77450;BME280;66536;53.150;18.172;2023-05-10T06:57:29;101563.02;;;14.78;38.34
77450;BME280;66536;53.150;18.172;2023-05-10T06:59:55;101566.10;;;14.85;38.66
77450;BME280;66536;53.150;18.172;2023-05-10T07:02:23;101566.07;;;14.98;38.76
77450;BME280;66536;53.150;18.172;2023-05-10T07:04:49;101559.57;;;15.12;38.13
77450;BME280;66536;53.150;18.172;2023-05-10T07:07:15;101560.89;;;15.23;37.44
77450;BME280;66536;53.150;18.172;2023-05-10T07:09:41;101554.41;;;15.32;37.37
77450;BME280;66536;53.150;18.172;2023-05-10T07:12:08;101561.71;;;15.44;37.60
77450;BME280;66536;53.150;18.172;2023-05-10T07:14:34;101561.42;;;15.56;37.23
77450;BME280;66536;53.150;18.172;2023-05-10T07:17:00;101559.14;;;15.70;36.83
77450;BME280;66536;53.150;18.172;2023-05-10T07:19:26;101554.98;;;15.79;36.43
77450;BME280;66536;53.150;18.172;2023-05-10T07:21:52;101560.03;;;15.90;36.61
77450;BME280;66536;53.150;18.172;2023-05-10T07:24:18;101558.88;;;16.05;36.52
77450;BME280;66536;53.150;18.172;2023-05-10T07:26:44;101559.75;;;16.22;36.25
77450;BME280;66536;53.150;18.172;2023-05-10T07:29:11;101553.97;;;16.33;35.17
77450;BME280;66536;53.150;18.172;2023-05-10T07:31:37;101557.69;;;16.37;34.86
77450;BME280;66536;53.150;18.172;2023-05-10T07:34:03;101554.50;;;16.41;34.96
77450;BME280;66536;53.150;18.172;2023-05-10T07:36:29;101553.51;;;16.50;35.00
77450;BME280;66536;53.150;18.172;2023-05-10T07:38:56;101556.29;;;16.61;35.17
77450;BME280;66536;53.150;18.172;2023-05-10T07:41:23;101553.61;;;16.73;34.73
77450;BME280;66536;53.150;18.172;2023-05-10T07:43:49;101555.64;;;16.79;34.55
77450;BME280;66536;53.150;18.172;2023-05-10T07:46:15;101551.19;;;16.88;34.03
77450;BME280;66536;53.150;18.172;2023-05-10T07:48:41;101555.11;;;16.94;33.76
77450;BME280;66536;53.150;18.172;2023-05-10T07:51:07;101552.77;;;17.01;33.32
77450;BME280;66536;53.150;18.172;2023-05-10T07:53:53;101552.76;;;17.10;33.27
77450;BME280;66536;53.150;18.172;2023-05-10T07:56:23;101549.02;;;17.21;32.99
77450;BME280;66536;53.150;18.172;2023-05-10T07:58:51;101549.73;;;17.27;32.69
77450;BME280;66536;53.150;18.172;2023-05-10T08:01:17;101544.88;;;17.30;32.47
77450;BME280;66536;53.150;18.172;2023-05-10T08:03:43;101552.56;;;17.37;32.41
77450;BME280;66536;53.150;18.172;2023-05-10T08:06:09;101548.70;;;17.49;32.62
77450;BME280;66536;53.150;18.172;2023-05-10T08:08:36;101551.80;;;17.61;32.49
77450;BME280;66536;53.150;18.172;2023-05-10T08:11:03;101540.65;;;17.69;31.81
77450;BME280;66536;53.150;18.172;2023-05-10T08:13:29;101542.21;;;17.72;32.11
77450;BME280;66536;53.150;18.172;2023-05-10T08:16:17;101538.84;;;17.83;31.80
77450;BME280;66536;53.150;18.172;2023-05-10T08:18:44;101536.46;;;17.93;31.28
77450;BME280;66536;53.150;18.172;2023-05-10T08:21:11;101535.15;;;17.96;30.30
77450;BME280;66536;53.150;18.172;2023-05-10T08:23:37;101535.64;;;17.99;30.30
77450;BME280;66536;53.150;18.172;2023-05-10T08:26:03;101536.31;;;18.02;29.87
77450;BME280;66536;53.150;18.172;2023-05-10T08:28:29;101538.42;;;18.03;29.63
77450;BME280;66536;53.150;18.172;2023-05-10T08:30:55;101540.39;;;18.13;29.88
77450;BME280;66536;53.150;18.172;2023-05-10T08:33:21;101544.30;;;18.23;29.51
77450;BME280;66536;53.150;18.172;2023-05-10T08:35:47;101535.52;;;18.31;29.13
77450;BME280;66536;53.150;18.172;2023-05-10T08:38:14;101537.66;;;18.36;29.00
77450;BME280;66536;53.150;18.172;2023-05-10T08:40:42;101529.63;;;18.45;29.32
77450;BME280;66536;53.150;18.172;2023-05-10T08:43:09;101528.34;;;18.53;29.39
77450;BME280;66536;53.150;18.172;2023-05-10T08:45:39;101535.05;;;18.63;28.43
77450;BME280;66536;53.150;18.172;2023-05-10T08:48:06;101538.59;;;18.64;28.04
77450;BME280;66536;53.150;18.172;2023-05-10T08:50:35;101533.10;;;18.63;27.66
77450;BME280;66536;53.150;18.172;2023-05-10T08:53:06;101529.67;;;18.68;27.97
77450;BME280;66536;53.150;18.172;2023-05-10T08:55:34;101528.94;;;18.74;28.02
77450;BME280;66536;53.150;18.172;2023-05-10T08:58:03;101531.84;;;18.82;28.25
77450;BME280;66536;53.150;18.172;2023-05-10T09:00:30;101533.06;;;18.89;27.64
77450;BME280;66536;53.150;18.172;2023-05-10T09:02:58;101527.34;;;18.94;27.65
77450;BME280;66536;53.150;18.172;2023-05-10T09:05:24;101532.06;;;19.00;28.01
77450;BME280;66536;53.150;18.172;2023-05-10T09:07:50;101524.69;;;19.14;27.86
77450;BME280;66536;53.150;18.172;2023-05-10T09:10:19;101524.75;;;19.18;27.37
77450;BME280;66536;53.150;18.172;2023-05-10T09:12:46;101528.23;;;19.18;27.43
77450;BME280;66536;53.150;18.172;2023-05-10T09:15:15;101529.85;;;19.23;27.68
77450;BME280;66536;53.150;18.172;2023-05-10T09:17:42;101533.43;;;19.36;27.68
77450;BME280;66536;53.150;18.172;2023-05-10T09:23:31;101525.61;;;19.61;27.01
77450;BME280;66536;53.150;18.172;2023-05-10T09:26:11;101530.22;;;19.70;26.88
77450;BME280;66536;53.150;18.172;2023-05-10T09:32:40;101524.90;;;19.87;26.58
77450;BME280;66536;53.150;18.172;2023-05-10T09:35:17;101516.86;;;19.93;26.45
77450;BME280;66536;53.150;18.172;2023-05-10T09:37:48;101524.61;;;19.99;26.76
77450;BME280;66536;53.150;18.172;2023-05-10T09:40:17;101525.34;;;20.09;26.57
77450;BME280;66536;53.150;18.172;2023-05-10T09:42:54;101526.00;;;20.20;26.74
77450;BME280;66536;53.150;18.172;2023-05-10T09:45:23;101521.90;;;20.31;26.34
77450;BME280;66536;53.150;18.172;2023-05-10T09:50:35;101515.36;;;20.36;26.00
77450;BME280;66536;53.150;18.172;2023-05-10T09:53:14;101516.71;;;20.40;26.28
77450;BME280;66536;53.150;18.172;2023-05-10T09:55:43;101519.81;;;20.46;25.98
77450;BME280;66536;53.150;18.172;2023-05-10T09:58:11;101513.79;;;20.48;25.75
77450;BME280;66536;53.150;18.172;2023-05-10T10:00:40;101512.65;;;20.51;26.06
77450;BME280;66536;53.150;18.172;2023-05-10T10:03:13;101508.14;;;20.59;26.19
77450;BME280;66536;53.150;18.172;2023-05-10T10:05:41;101501.78;;;20.68;25.62
77450;BME280;66536;53.150;18.172;2023-05-10T10:08:08;101505.55;;;20.65;25.49
77450;BME280;66536;53.150;18.172;2023-05-10T10:10:35;101500.80;;;20.63;25.35
77450;BME280;66536;53.150;18.172;2023-05-10T10:13:06;101496.00;;;20.63;25.58
77450;BME280;66536;53.150;18.172;2023-05-10T10:15:34;101500.38;;;20.69;25.77
77450;BME280;66536;53.150;18.172;2023-05-10T10:18:00;101501.63;;;20.77;25.84
77450;BME280;66536;53.150;18.172;2023-05-10T10:20:28;101489.56;;;20.88;25.70
77450;BME280;66536;53.150;18.172;2023-05-10T10:22:54;101484.92;;;20.96;25.87
77450;BME280;66536;53.150;18.172;2023-05-10T10:25:21;101482.64;;;20.99;25.57
77450;BME280;66536;53.150;18.172;2023-05-10T10:28:06;101486.17;;;21.01;25.46
77450;BME280;66536;53.150;18.172;2023-05-10T10:30:46;101482.10;;;21.05;25.30
77450;BME280;66536;53.150;18.172;2023-05-10T10:36:12;101474.90;;;20.95;25.41
77450;BME280;66536;53.150;18.172;2023-05-10T10:38:59;101474.65;;;20.96;25.79
77450;BME280;66536;53.150;18.172;2023-05-10T10:41:31;101478.95;;;21.08;25.51
77450;BME280;66536;53.150;18.172;2023-05-10T10:49:50;101472.00;;;21.19;25.23
77450;BME280;66536;53.150;18.172;2023-05-10T10:52:24;101476.66;;;21.25;25.21
77450;BME280;66536;53.150;18.172;2023-05-10T10:57:47;101472.30;;;21.25;25.14
77450;BME280;66536;53.150;18.172;2023-05-10T11:03:10;101471.59;;;21.35;25.41
77450;BME280;66536;53.150;18.172;2023-05-10T11:05:41;101478.28;;;21.32;25.16
77450;BME280;66536;53.150;18.172;2023-05-10T11:08:27;101474.21;;;21.31;25.11
77450;BME280;66536;53.150;18.172;2023-05-10T11:11:06;101463.77;;;21.27;24.68
77450;BME280;66536;53.150;18.172;2023-05-10T11:13:39;101471.80;;;21.22;24.41
77450;BME280;66536;53.150;18.172;2023-05-10T11:16:17;101471.11;;;21.30;24.23
77450;BME280;66536;53.150;18.172;2023-05-10T11:18:59;101475.70;;;21.33;24.10
77450;BME280;66536;53.150;18.172;2023-05-10T11:21:29;101467.70;;;21.35;24.38
77450;BME280;66536;53.150;18.172;2023-05-10T11:23:57;101469.48;;;21.34;24.39
77450;BME280;66536;53.150;18.172;2023-05-10T11:26:24;101466.13;;;21.36;24.88
77450;BME280;66536;53.150;18.172;2023-05-10T11:28:53;101463.14;;;21.42;24.68
77450;BME280;66536;53.150;18.172;2023-05-10T11:31:21;101458.86;;;21.51;24.90
77450;BME280;66536;53.150;18.172;2023-05-10T11:33:53;101461.66;;;21.61;24.68
77450;BME280;66536;53.150;18.172;2023-05-10T11:36:21;101458.68;;;21.67;24.00
77450;BME280;66536;53.150;18.172;2023-05-10T11:38:48;101452.56;;;21.68;23.98
77450;BME280;66536;53.150;18.172;2023-05-10T11:41:18;101455.35;;;21.66;23.80
77450;BME280;66536;53.150;18.172;2023-05-10T11:43:50;101452.83;;;21.65;23.82
77450;BME280;66536;53.150;18.172;2023-05-10T11:46:20;101455.58;;;21.72;24.31
77450;BME280;66536;53.150;18.172;2023-05-10T11:48:59;101454.54;;;21.87;24.05
77450;BME280;66536;53.150;18.172;2023-05-10T11:51:28;101457.88;;;21.95;23.98
77450;BME280;66536;53.150;18.172;2023-05-10T11:53:55;101447.73;;;21.93;23.71
77450;BME280;66536;53.150;18.172;2023-05-10T11:56:22;101454.27;;;21.94;23.70
77450;BME280;66536;53.150;18.172;2023-05-10T11:58:57;101456.34;;;22.00;23.54
77450;BME280;66536;53.150;18.172;2023-05-10T12:01:25;101451.96;;;22.01;23.70
77450;BME280;66536;53.150;18.172;2023-05-10T12:03:53;101447.43;;;22.02;23.34
77450;BME280;66536;53.150;18.172;2023-05-10T12:06:20;101447.02;;;22.02;23.44
77450;BME280;66536;53.150;18.172;2023-05-10T12:08:48;101441.20;;;22.02;22.74
77450;BME280;66536;53.150;18.172;2023-05-10T12:11:18;101437.66;;;21.99;22.92
77450;BME280;66536;53.150;18.172;2023-05-10T12:13:45;101443.04;;;21.90;22.58
77450;BME280;66536;53.150;18.172;2023-05-10T12:16:17;101446.48;;;21.92;23.19
77450;BME280;66536;53.150;18.172;2023-05-10T12:18:44;101444.02;;;22.03;23.26
77450;BME280;66536;53.150;18.172;2023-05-10T12:21:11;101443.42;;;22.09;22.44
77450;BME280;66536;53.150;18.172;2023-05-10T12:23:38;101437.09;;;22.10;22.38
77450;BME280;66536;53.150;18.172;2023-05-10T12:26:05;101438.67;;;22.13;22.40
77450;BME280;66536;53.150;18.172;2023-05-10T12:28:32;101443.68;;;22.23;22.68
77450;BME280;66536;53.150;18.172;2023-05-10T12:30:59;101438.63;;;22.28;22.76
77450;BME280;66536;53.150;18.172;2023-05-10T12:33:26;101439.40;;;22.28;22.84
77450;BME280;66536;53.150;18.172;2023-05-10T12:35:53;101438.14;;;22.34;22.94
77450;BME280;66536;53.150;18.172;2023-05-10T12:38:26;101440.92;;;22.45;23.14
77450;BME280;66536;53.150;18.172;2023-05-10T12:40:57;101439.80;;;22.53;22.02
77450;BME280;66536;53.150;18.172;2023-05-10T12:43:23;101442.83;;;22.46;22.29
77450;BME280;66536;53.150;18.172;2023-05-10T12:45:49;101445.98;;;22.44;22.29
77450;BME280;66536;53.150;18.172;2023-05-10T12:48:15;101442.40;;;22.50;22.35
77450;BME280;66536;53.150;18.172;2023-05-10T12:53:50;101444.88;;;22.45;22.09
77450;BME280;66536;53.150;18.172;2023-05-10T12:56:16;101436.76;;;22.44;22.37
77450;BME280;66536;53.150;18.172;2023-05-10T12:58:42;101435.48;;;22.49;21.85
77450;BME280;66536;53.150;18.172;2023-05-10T13:01:14;101426.10;;;22.48;21.92
77450;BME280;66536;53.150;18.172;2023-05-10T13:03:40;101427.25;;;22.46;22.03
77450;BME280;66536;53.150;18.172;2023-05-10T13:06:26;101424.63;;;22.41;21.57
77450;BME280;66536;53.150;18.172;2023-05-10T13:08:52;101433.81;;;22.38;21.62
77450;BME280;66536;53.150;18.172;2023-05-10T13:11:18;101427.11;;;22.37;21.58
77450;BME280;66536;53.150;18.172;2023-05-10T13:13:45;101422.59;;;22.32;21.54
77450;BME280;66536;53.150;18.172;2023-05-10T13:16:11;101430.96;;;22.29;22.16
77450;BME280;66536;53.150;18.172;2023-05-10T13:18:38;101428.12;;;22.30;22.43
77450;BME280;66536;53.150;18.172;2023-05-10T13:21:04;101425.91;;;22.32;22.47
77450;BME280;66536;53.150;18.172;2023-05-10T13:23:31;101428.38;;;22.36;22.52
77450;BME280;66536;53.150;18.172;2023-05-10T13:25:57;101422.46;;;22.43;22.52
77450;BME280;66536;53.150;18.172;2023-05-10T13:28:23;101415.28;;;22.45;22.00
77450;BME280;66536;53.150;18.172;2023-05-10T13:30:49;101414.60;;;22.44;21.94
77450;BME280;66536;53.150;18.172;2023-05-10T13:33:15;101415.33;;;22.45;22.36